SANTIAGO DE COMPOSTELA, GALICIA

latitud = 42° 53' 17''N | Longitud = 008° 24' 38''W
370 metros sobre el nivel del mar | datos mensuales

Fecha, hora, temperatura, viento dirección y velocidad, humedad y presión.

  • 25-09-2017 00:00:00 | 14.40°C | Sur |6.00 km/h | 98.00% | 979.60 hPa
  • 24-09-2017 23:00:00 | 14.50°C | Sur |5.00 km/h | 98.00% | 979.40 hPa
  • 24-09-2017 22:00:00 | 14.40°C | Sur |6.00 km/h | 98.00% | 979.10 hPa
  • 24-09-2017 21:00:00 | 14.40°C | Sudoeste |6.00 km/h | 98.00% | 978.70 hPa
  • 24-09-2017 20:00:00 | 14.60°C | Sudoeste |12.00 km/h | 98.00% | 978.30 hPa
  • 24-09-2017 19:00:00 | 14.40°C | Sudoeste |7.00 km/h | 98.00% | 978.10 hPa
  • 24-09-2017 18:00:00 | 14.60°C | Sudoeste |13.00 km/h | 97.00% | 978.10 hPa
  • 24-09-2017 17:00:00 | 14.70°C | Sudoeste |11.00 km/h | 96.00% | 977.90 hPa
  • 24-09-2017 16:00:00 | 14.60°C | Sur |3.00 km/h | 93.00% | 977.30 hPa
  • 24-09-2017 15:00:00 | 14.20°C | Sur |10.00 km/h | 93.00% | 977.40 hPa
  • 24-09-2017 14:00:00 | 14.00°C | Sudoeste |19.00 km/h | 91.00% | 977.60 hPa
  • 24-09-2017 13:00:00 | 14.10°C | Sudoeste |18.00 km/h | 83.00% | 977.50 hPa
  • 24-09-2017 12:00:00 | 16.90°C | Sur |16.00 km/h | 61.00% | 976.80 hPa
  • 24-09-2017 11:00:00 | 13.20°C | Sur |5.00 km/h | 80.00% | 976.80 hPa
  • 24-09-2017 10:00:00 | 11.20°C | Sur |4.00 km/h | 96.00% | 976.70 hPa
  • 24-09-2017 09:00:00 | 8.60°C | Calma |0.00 km/h | 99.00% | 976.50 hPa
  • 24-09-2017 08:00:00 | 8.50°C | Sur |4.00 km/h | 99.00% | 976.20 hPa
  • 24-09-2017 07:00:00 | 10.00°C | Calma |0.00 km/h | 99.00% | 976.20 hPa
  • 24-09-2017 06:00:00 | 9.70°C | Calma |0.00 km/h | 99.00% | 976.60 hPa
  • 24-09-2017 05:00:00 | 10.30°C | Sur |2.00 km/h | 99.00% | 976.60 hPa
  • 24-09-2017 04:00:00 | 11.10°C | Calma |0.00 km/h | 98.00% | 976.90 hPa
  • 24-09-2017 03:00:00 | 11.00°C | Sur |4.00 km/h | 98.00% | 977.40 hPa
  • 24-09-2017 02:00:00 | 11.60°C | Sur |2.00 km/h | 97.00% | 977.30 hPa
  • 24-09-2017 01:00:00 | 12.10°C | Sur |6.00 km/h | 96.00% | 977.50 hPa